Time;durP1;ratioP1;P1;durP2;ratioP2;P2;SDS_P1;SDS_P2;PMS_P1;PMS_P2;Temp;Humidity;BMP_temperature;BMP_pressure;BME280_temperature;BME280_humidity;BME280_pressure;Samples;Min_cycle;Max_cycle;Signal;HPM_P1;HPM_P2
2021/01/09 00:00:12;;;;;;;31.25;12.70;;;;;;;6.01;73.59;101522.50;4463215;32;20120;-75
2021/01/09 00:02:40;;;;;;;29.35;12.63;;;;;;;5.95;73.92;101506.47;4457888;32;20407;-77
2021/01/09 00:05:07;;;;;;;36.88;13.57;;;;;;;6.03;73.97;101514.53;4451171;32;20029;-77
2021/01/09 00:07:33;;;;;;;26.77;12.15;;;;;;;6.05;73.60;101516.94;4459472;32;20056;-75
2021/01/09 00:10:00;;;;;;;29.12;12.10;;;;;;;5.97;73.41;101518.88;4452968;32;20367;-76
2021/01/09 00:12:26;;;;;;;34.22;13.10;;;;;;;6.00;73.74;101514.50;4452025;32;20105;-76
2021/01/09 00:14:52;;;;;;;31.30;13.05;;;;;;;5.99;73.50;101515.69;4459612;32;20028;-75
2021/01/09 00:17:18;;;;;;;23.55;10.30;;;;;;;5.96;73.15;101502.50;4457949;32;20099;-76
2021/01/09 00:19:43;;;;;;;32.20;13.02;;;;;;;6.02;72.47;101515.69;4456941;32;20037;-76
2021/01/09 00:22:09;;;;;;;27.05;11.50;;;;;;;5.90;73.19;101518.81;4453346;32;20037;-76
2021/01/09 00:24:36;;;;;;;26.77;11.55;;;;;;;5.96;73.03;101516.47;4465648;32;20085;-76
2021/01/09 00:27:07;;;;;;;28.58;11.05;;;;;;;6.02;73.20;101518.50;4457246;32;20405;-75
2021/01/09 00:29:32;;;;;;;31.08;11.50;;;;;;;6.06;72.92;101513.75;4458214;32;20060;-76
2021/01/09 00:31:58;;;;;;;25.00;11.38;;;;;;;6.10;72.56;101511.78;4454060;32;20034;-76
2021/01/09 00:34:24;;;;;;;28.12;10.93;;;;;;;6.13;72.29;101512.97;4444725;26;20088;-79
2021/01/09 00:36:50;;;;;;;27.35;10.35;;;;;;;6.23;72.63;101515.06;4413536;32;20088;-76
2021/01/09 00:39:15;;;;;;;32.83;11.12;;;;;;;6.12;71.81;101516.97;4408660;32;20046;-78
2021/01/09 00:41:41;;;;;;;27.48;11.88;;;;;;;6.15;72.52;101513.41;4410668;32;20029;-76
2021/01/09 00:44:07;;;;;;;28.60;10.70;;;;;;;6.16;72.50;101519.81;4413488;32;20030;-77
2021/01/09 00:46:33;;;;;;;29.25;10.25;;;;;;;6.16;72.36;101520.59;4401617;32;20160;-78
2021/01/09 00:48:59;;;;;;;28.15;10.23;;;;;;;6.19;71.94;101527.41;4407400;32;20072;-77
2021/01/09 00:51:25;;;;;;;28.12;10.80;;;;;;;6.21;72.11;101528.63;4417045;32;20046;-78
2021/01/09 00:53:51;;;;;;;24.65;10.40;;;;;;;6.06;71.12;101530.53;4411403;32;20444;-78
2021/01/09 00:56:17;;;;;;;29.73;11.38;;;;;;;6.16;72.05;101528.19;4414244;32;20138;-79
2021/01/09 00:58:43;;;;;;;27.85;11.10;;;;;;;6.18;71.91;101528.59;4405897;32;20547;-78
2021/01/09 01:01:10;;;;;;;29.55;11.57;;;;;;;6.18;72.13;101525.78;4392811;32;20317;-77
2021/01/09 01:03:37;;;;;;;26.25;11.25;;;;;;;6.19;71.82;101525.41;4412995;32;20018;-76
2021/01/09 01:06:04;;;;;;;25.25;10.95;;;;;;;6.19;71.94;101524.63;4410657;32;20411;-77
2021/01/09 01:08:30;;;;;;;25.70;10.65;;;;;;;6.05;70.55;101530.91;4410737;32;20419;-79
2021/01/09 01:10:56;;;;;;;28.30;11.02;;;;;;;6.13;71.99;101526.94;4416656;32;20029;-78
2021/01/09 01:13:22;;;;;;;24.52;10.20;;;;;;;6.10;71.83;101530.53;4410728;32;20088;-79
2021/01/09 01:15:49;;;;;;;25.88;11.15;;;;;;;6.04;71.79;101532.88;4411463;32;20052;-77
2021/01/09 01:18:15;;;;;;;27.40;10.30;;;;;;;6.09;72.12;101545.69;4413936;32;20449;-79
2021/01/09 01:20:40;;;;;;;23.98;9.95;;;;;;;6.07;72.27;101545.28;4417394;32;20038;-78
2021/01/09 01:23:06;;;;;;;28.30;10.80;;;;;;;6.08;71.94;101550.47;4415504;32;20018;-76
2021/01/09 01:25:32;;;;;;;25.52;10.55;;;;;;;6.07;71.91;101557.25;4409160;32;20201;-78
2021/01/09 01:27:57;;;;;;;26.52;10.75;;;;;;;5.96;71.04;101545.19;4406041;32;20049;-79
2021/01/09 01:30:23;;;;;;;27.13;10.95;;;;;;;6.00;71.78;101542.44;4410172;32;20042;-78
2021/01/09 01:32:49;;;;;;;35.35;11.82;;;;;;;5.89;71.62;101553.53;4410944;32;20470;-77
2021/01/09 01:35:14;;;;;;;29.27;11.12;;;;;;;5.80;71.92;101549.44;4411188;32;20103;-78
2021/01/09 01:37:40;;;;;;;30.15;10.73;;;;;;;5.76;72.42;101556.97;4414742;32;20119;-77
2021/01/09 01:40:06;;;;;;;23.65;10.48;;;;;;;5.78;72.42;101563.00;4408767;32;20149;-78
2021/01/09 01:42:32;;;;;;;33.17;11.27;;;;;;;5.81;72.36;101556.63;4408412;32;20078;-78
2021/01/09 01:44:58;;;;;;;26.58;11.10;;;;;;;5.78;72.38;101569.37;4410138;32;20026;-78
2021/01/09 01:47:24;;;;;;;25.00;10.88;;;;;;;5.77;72.41;101566.97;4406261;32;20065;-77
2021/01/09 01:49:51;;;;;;;25.45;10.50;;;;;;;5.71;72.54;101566.50;4413812;32;20042;-77
2021/01/09 01:52:17;;;;;;;23.08;10.35;;;;;;;5.76;72.67;101570.94;4409169;32;20121;-79
2021/01/09 01:54:43;;;;;;;30.83;10.85;;;;;;;5.73;72.81;101569.72;4415765;32;20065;-77
2021/01/09 01:57:11;;;;;;;23.30;10.88;;;;;;;5.79;72.46;101570.97;4410223;32;20045;-77
2021/01/09 01:59:37;;;;;;;21.42;10.57;;;;;;;5.79;72.37;101575.75;4410532;32;20055;-78
2021/01/09 02:02:06;;;;;;;25.90;10.98;;;;;;;5.78;71.91;101580.56;4415452;32;20042;-76
2021/01/09 02:04:31;;;;;;;30.35;11.73;;;;;;;5.82;72.29;101578.63;4413175;32;20039;-77
2021/01/09 02:07:05;;;;;;;24.65;11.12;;;;;;;5.78;72.51;101588.12;4417856;32;20362;-79
2021/01/09 02:09:37;;;;;;;27.77;11.77;;;;;;;5.80;72.27;101592.13;4416650;32;20061;-78
2021/01/09 02:15:00;;;;;;;23.05;11.60;;;;;;;5.80;72.70;101586.53;3983251;32;15126994;-76
2021/01/09 02:17:27;;;;;;;32.25;10.73;;;;;;;5.72;72.82;101596.06;4436790;32;20139;-75
2021/01/09 02:19:58;;;;;;;32.33;12.45;;;;;;;5.68;73.10;101595.19;4436980;32;20055;-75
2021/01/09 02:22:25;;;;;;;21.05;9.52;;;;;;;5.78;73.14;101596.50;4445891;32;20106;-75
2021/01/09 02:24:51;;;;;;;22.80;10.23;;;;;;;5.77;72.59;101595.69;4440763;32;20087;-77
2021/01/09 02:27:17;;;;;;;25.05;9.75;;;;;;;5.77;72.49;101598.47;4442028;32;20034;-77
2021/01/09 02:29:51;;;;;;;24.50;10.40;;;;;;;5.85;72.60;101603.00;4435483;32;20056;-76
2021/01/09 02:32:19;;;;;;;23.73;10.40;;;;;;;5.92;72.35;101603.03;4442607;32;20045;-76
2021/01/09 02:34:50;;;;;;;28.45;11.43;;;;;;;5.97;72.08;101599.09;4420924;32;20468;-78
2021/01/09 02:37:16;;;;;;;30.85;11.98;;;;;;;6.02;72.19;101601.53;4427022;32;20469;-75
2021/01/09 02:39:43;;;;;;;23.23;10.48;;;;;;;6.02;71.87;101601.53;4423129;32;20022;-77
2021/01/09 02:42:10;;;;;;;25.52;9.93;;;;;;;5.95;71.81;101599.47;4429750;32;20108;-76
2021/01/09 02:44:37;;;;;;;31.37;10.02;;;;;;;5.95;71.77;101599.47;4430950;32;20038;-77
2021/01/09 02:47:04;;;;;;;25.92;10.60;;;;;;;5.92;72.07;101597.44;4427149;32;20053;-77
2021/01/09 02:49:30;;;;;;;25.90;10.20;;;;;;;5.92;71.79;101602.22;4429842;32;20049;-76
2021/01/09 02:51:56;;;;;;;25.40;10.23;;;;;;;5.91;72.05;101604.25;4426146;32;20495;-79
2021/01/09 02:54:22;;;;;;;23.33;9.02;;;;;;;5.96;72.23;101605.88;4428217;32;20422;-76
2021/01/09 02:56:47;;;;;;;19.75;8.70;;;;;;;6.03;71.89;101605.94;4421894;32;20034;-76
2021/01/09 02:59:13;;;;;;;25.98;10.10;;;;;;;6.08;71.84;101606.37;4424902;32;20084;-79
2021/01/09 03:01:38;;;;;;;29.02;10.60;;;;;;;6.14;71.63;101613.19;4423059;32;20093;-75
2021/01/09 03:04:04;;;;;;;22.95;10.18;;;;;;;6.16;70.94;101612.03;4424074;32;20061;-75
2021/01/09 03:06:30;;;;;;;24.50;9.90;;;;;;;6.17;71.50;101611.62;4431237;32;20091;-79
2021/01/09 03:08:55;;;;;;;22.55;9.13;;;;;;;6.14;70.86;101604.03;4428319;32;20440;-76
2021/01/09 03:11:22;;;;;;;22.48;9.05;;;;;;;6.09;71.05;101609.97;4431804;32;20060;-75
2021/01/09 03:13:48;;;;;;;24.10;9.48;;;;;;;5.48;71.34;101526.81;4428661;32;20030;-76
2021/01/09 03:16:14;;;;;;;23.20;9.18;;;;;;;5.97;71.13;101615.84;4420453;32;20081;-76
2021/01/09 03:18:40;;;;;;;24.83;9.60;;;;;;;5.95;71.10;101618.22;4423889;32;20090;-76
2021/01/09 03:21:06;;;;;;;25.00;9.38;;;;;;;5.96;71.99;101617.84;4416424;32;20054;-75
2021/01/09 03:23:31;;;;;;;26.87;9.07;;;;;;;5.83;71.95;101616.53;4419531;32;20048;-75
2021/01/09 03:25:57;;;;;;;23.12;10.02;;;;;;;5.83;71.91;101612.94;4415102;32;20043;-75
2021/01/09 03:28:22;;;;;;;21.50;9.23;;;;;;;5.83;72.40;101616.53;4420505;32;20406;-77
2021/01/09 03:30:49;;;;;;;19.35;8.70;;;;;;;5.92;72.21;101622.59;4419775;32;20403;-75
2021/01/09 03:33:15;;;;;;;25.25;9.30;;;;;;;5.94;71.56;101617.44;4416454;32;20034;-75
2021/01/09 03:35:42;;;;;;;20.88;9.00;;;;;;;5.91;71.95;101617.41;4416213;32;20469;-74
2021/01/09 03:38:07;;;;;;;23.10;8.55;;;;;;;5.95;72.03;101613.44;4406548;32;20316;-75
2021/01/09 03:40:33;;;;;;;25.15;8.30;;;;;;;5.99;71.78;101610.69;4409954;32;20139;-75
2021/01/09 03:42:59;;;;;;;19.48;8.60;;;;;;;5.86;71.63;101610.16;4413088;32;20027;-76
2021/01/09 03:45:24;;;;;;;21.30;9.20;;;;;;;5.87;71.87;101622.16;4416003;32;20352;-76
2021/01/09 03:47:50;;;;;;;31.05;9.35;;;;;;;5.89;71.39;101616.97;4414917;32;20081;-76
2021/01/09 03:50:16;;;;;;;22.98;8.55;;;;;;;5.82;71.51;101612.13;4414577;32;20206;-75
2021/01/09 03:52:41;;;;;;;25.30;9.45;;;;;;;5.81;72.26;101616.13;4419168;32;20437;-76
2021/01/09 03:55:08;;;;;;;22.77;8.27;;;;;;;5.83;71.91;101622.12;4405700;32;20045;-76
2021/01/09 03:57:33;;;;;;;20.48;8.63;;;;;;;5.79;71.68;101615.66;4420436;32;20033;-77
2021/01/09 03:59:59;;;;;;;21.75;8.95;;;;;;;5.83;72.37;101608.16;4415946;32;20452;-77
2021/01/09 04:02:24;;;;;;;24.58;9.02;;;;;;;5.83;71.72;101610.94;4416270;32;20515;-77
2021/01/09 04:04:50;;;;;;;27.02;9.05;;;;;;;5.81;71.60;101610.53;4411694;32;20083;-77
2021/01/09 04:07:16;;;;;;;26.92;9.73;;;;;;;5.79;71.92;101606.47;4408472;32;20350;-76
2021/01/09 04:09:41;;;;;;;27.23;10.10;;;;;;;5.77;72.13;101604.06;4412940;32;20064;-76
2021/01/09 04:12:07;;;;;;;24.10;9.48;;;;;;;5.82;72.02;101617.72;4418601;32;20034;-75
2021/01/09 04:14:33;;;;;;;24.27;10.35;;;;;;;5.83;71.55;101610.94;4418144;32;20068;-75
2021/01/09 04:16:58;;;;;;;24.90;9.82;;;;;;;5.83;71.40;101608.16;4418185;32;20052;-77
2021/01/09 04:19:24;;;;;;;29.20;9.93;;;;;;;5.83;71.72;101618.53;4418795;32;20111;-76
2021/01/09 04:21:52;;;;;;;32.20;9.85;;;;;;;5.83;72.12;101621.34;4419650;32;20085;-75
2021/01/09 04:24:20;;;;;;;21.05;9.25;;;;;;;5.92;72.37;101622.59;4419563;32;20030;-76
2021/01/09 04:26:55;;;;;;;23.30;9.77;;;;;;;5.97;71.58;101621.44;4418482;32;20045;-76
2021/01/09 04:29:21;;;;;;;30.90;10.13;;;;;;;5.99;71.60;101611.47;4419343;32;20109;-77
2021/01/09 04:31:48;;;;;;;30.80;11.10;;;;;;;6.00;71.71;101612.28;4419162;32;20137;-77
2021/01/09 04:34:14;;;;;;;33.15;11.07;;;;;;;6.04;71.57;101615.91;4411568;32;20087;-76
2021/01/09 04:36:40;;;;;;;25.62;9.52;;;;;;;6.05;71.36;101617.53;4406501;32;20039;-76
2021/01/09 04:39:06;;;;;;;26.62;10.05;;;;;;;6.07;71.59;101610.34;4414015;32;20022;-75
2021/01/09 04:41:35;;;;;;;27.45;10.75;;;;;;;6.05;71.13;101617.53;4413172;32;20129;-75
2021/01/09 04:44:03;;;;;;;28.27;10.80;;;;;;;6.08;71.70;101611.16;4421006;32;20487;-77
2021/01/09 04:46:31;;;;;;;26.10;10.57;;;;;;;6.03;71.48;101620.72;4416886;32;20034;-76
2021/01/09 04:48:57;;;;;;;24.20;10.65;;;;;;;5.90;71.79;101616.59;4416633;32;20626;-75
2021/01/09 04:51:24;;;;;;;25.58;10.30;;;;;;;5.95;72.14;101618.22;4418924;32;20365;-75
2021/01/09 04:53:52;;;;;;;28.73;10.45;;;;;;;5.88;71.89;101618.16;4418787;32;20039;-75
2021/01/09 04:56:18;;;;;;;25.75;10.75;;;;;;;5.87;72.69;101616.56;4417952;32;20046;-77
2021/01/09 04:58:44;;;;;;;26.95;10.57;;;;;;;5.83;72.26;101622.12;4415748;32;20170;-76
2021/01/09 05:01:10;;;;;;;25.85;10.95;;;;;;;5.74;72.37;101626.41;4412554;32;20054;-76
2021/01/09 05:03:35;;;;;;;26.58;10.70;;;;;;;5.74;72.67;101621.59;4419989;32;20523;-76
2021/01/09 05:06:01;;;;;;;26.33;10.40;;;;;;;5.76;72.92;101621.22;4408470;32;20023;-76
2021/01/09 05:08:27;;;;;;;27.27;10.48;;;;;;;5.79;72.81;101615.66;4411722;32;20022;-76
2021/01/09 05:10:53;;;;;;;23.23;9.73;;;;;;;5.78;72.91;101622.44;4413261;32;20038;-76
2021/01/09 05:13:23;;;;;;;28.87;11.90;;;;;;;5.71;72.73;101624.38;4407801;32;20050;-76
2021/01/09 05:15:49;;;;;;;28.55;11.20;;;;;;;5.68;73.05;101617.53;4410628;32;20332;-77
2021/01/09 05:18:17;;;;;;;28.10;11.02;;;;;;;5.46;73.41;101621.31;4418068;32;20092;-75
2021/01/09 05:20:43;;;;;;;29.42;10.73;;;;;;;5.50;74.41;101619.34;4410307;32;20407;-76
2021/01/09 05:23:10;;;;;;;22.77;10.88;;;;;;;5.51;74.15;101618.19;4419839;32;20050;-75
2021/01/09 05:25:37;;;;;;;26.70;11.88;;;;;;;5.46;73.96;101618.53;4415901;32;20047;-76
2021/01/09 05:28:05;;;;;;;27.17;11.20;;;;;;;5.46;73.93;101617.75;4410357;32;20018;-75
2021/01/09 05:30:31;;;;;;;30.50;11.43;;;;;;;5.42;73.92;101628.03;4429791;32;20054;-76
2021/01/09 05:33:00;;;;;;;31.80;10.88;;;;;;;5.30;74.83;101620.75;4419553;32;20052;-76
2021/01/09 05:35:28;;;;;;;30.45;13.13;;;;;;;5.27;74.75;101618.72;4413776;32;20059;-76
2021/01/09 05:37:54;;;;;;;30.17;12.07;;;;;;;5.30;74.01;101626.31;4408597;32;20077;-76
2021/01/09 05:40:20;;;;;;;27.23;10.52;;;;;;;5.30;74.39;101628.31;4431724;32;20155;-76
2021/01/09 05:42:45;;;;;;;26.95;11.30;;;;;;;5.20;74.08;101623.41;4412341;32;20049;-77
2021/01/09 05:45:14;;;;;;;30.02;11.80;;;;;;;5.21;74.80;101636.16;4413754;32;20074;-75
2021/01/09 05:47:40;;;;;;;28.60;11.23;;;;;;;5.22;75.40;101629.41;4411133;32;20095;-77
2021/01/09 05:50:07;;;;;;;28.27;11.23;;;;;;;5.23;75.13;101631.84;4414563;32;20038;-77
2021/01/09 05:52:39;;;;;;;26.02;10.45;;;;;;;5.30;75.25;101642.25;4419518;32;20406;-76
2021/01/09 05:55:06;;;;;;;22.75;9.32;;;;;;;5.34;74.95;101634.75;4411891;32;20168;-75
2021/01/09 05:57:36;;;;;;;26.52;10.05;;;;;;;5.37;74.60;101633.97;4413581;32;20144;-76
2021/01/09 06:00:10;;;;;;;24.42;9.73;;;;;;;5.40;74.20;101630.44;4413977;32;20040;-75
2021/01/09 06:03:10;;;;;;;20.15;9.65;;;;;;;5.38;73.49;101635.59;4417485;32;20045;-76
2021/01/09 06:05:42;;;;;;;26.62;10.38;;;;;;;5.41;73.96;101644.00;4416685;32;20125;-77
2021/01/09 06:08:12;;;;;;;27.92;9.77;;;;;;;5.47;73.89;101647.25;4417309;32;20086;-77
2021/01/09 06:10:40;;;;;;;23.65;9.13;;;;;;;5.48;73.59;101652.44;4417223;32;20052;-77
2021/01/09 06:13:08;;;;;;;27.60;9.80;;;;;;;5.52;73.42;101649.69;4412142;32;20094;-76
2021/01/09 06:15:36;;;;;;;25.50;9.75;;;;;;;5.52;73.14;101652.47;4412365;32;20097;-77
2021/01/09 06:18:02;;;;;;;25.12;9.73;;;;;;;5.42;73.11;101651.19;4409645;32;20049;-76
2021/01/09 06:20:29;;;;;;;23.60;8.40;;;;;;;5.44;73.19;101648.81;4410541;32;20042;-76
2021/01/09 06:22:55;;;;;;;20.05;8.38;;;;;;;5.33;72.94;101653.47;4413076;32;20053;-76
2021/01/09 06:25:21;;;;;;;21.00;8.25;;;;;;;5.32;73.04;101653.84;4410659;32;20378;-77
2021/01/09 06:27:50;;;;;;;22.05;8.98;;;;;;;5.31;72.97;101653.03;4413935;32;20052;-76
2021/01/09 06:30:19;;;;;;;23.35;8.05;;;;;;;5.33;72.67;101656.25;4414108;32;20046;-75
2021/01/09 06:32:58;;;;;;;30.12;8.68;;;;;;;5.27;72.04;101659.75;4413626;32;20030;-79
2021/01/09 06:35:24;;;;;;;27.35;8.68;;;;;;;5.11;72.25;101664.75;4412468;32;20141;-77
2021/01/09 06:37:50;;;;;;;20.58;7.95;;;;;;;4.93;73.01;101672.88;4408253;32;20062;-75
2021/01/09 06:40:16;;;;;;;22.67;8.88;;;;;;;4.60;73.20;101630.19;4409017;32;20026;-75
2021/01/09 06:42:43;;;;;;;25.67;8.73;;;;;;;4.74;73.54;101673.03;4413448;32;20084;-76
2021/01/09 06:45:09;;;;;;;23.73;10.00;;;;;;;4.73;73.89;101673.41;4408070;32;20052;-75
2021/01/09 06:47:35;;;;;;;33.08;9.80;;;;;;;4.69;73.58;101681.69;4415845;32;20080;-75
2021/01/09 06:52:58;;;;;;;25.60;10.07;;;;;;;4.94;73.45;101674.47;3965182;32;15722525;-77
2021/01/09 06:58:15;;;;;;;23.30;8.40;;;;;;;4.63;74.82;101674.84;3990029;32;15021753;-77
2021/01/09 07:00:40;;;;;;;21.73;8.48;;;;;;;4.53;74.23;101683.03;4445113;32;20182;-76
2021/01/09 07:03:15;;;;;;;25.45;9.13;;;;;;;4.55;74.42;101680.69;4447596;32;20030;-78
2021/01/09 07:05:43;;;;;;;20.10;8.23;;;;;;;4.51;73.91;101680.63;4445400;32;20022;-76
2021/01/09 07:08:10;;;;;;;20.33;8.63;;;;;;;4.54;74.64;101688.22;4446695;32;20118;-78
2021/01/09 07:10:46;;;;;;;25.27;9.85;;;;;;;4.60;74.51;101695.09;4447300;32;20426;-77
2021/01/09 07:13:13;;;;;;;26.87;9.65;;;;;;;4.68;74.23;101691.25;4446299;32;20049;-77
2021/01/09 07:15:39;;;;;;;21.58;8.65;;;;;;;4.67;73.54;101689.66;4437353;32;20077;-77
2021/01/09 07:18:07;;;;;;;20.60;8.30;;;;;;;4.67;74.02;101686.06;4445678;32;20033;-75
2021/01/09 07:20:43;;;;;;;23.95;9.38;;;;;;;4.68;73.86;101694.03;4446633;32;20068;-78
2021/01/09 07:23:13;;;;;;;24.95;9.80;;;;;;;4.63;74.10;101683.19;4445813;32;20115;-77
2021/01/09 07:25:41;;;;;;;23.30;9.25;;;;;;;4.55;73.96;101678.72;4444610;32;20084;-78
2021/01/09 07:28:22;;;;;;;26.42;8.85;;;;;;;4.51;73.94;101696.56;4438867;32;20033;-77
2021/01/09 07:31:03;;;;;;;23.90;9.15;;;;;;;4.50;74.34;101700.50;4446842;32;20109;-76
2021/01/09 07:33:31;;;;;;;27.80;10.35;;;;;;;4.47;74.51;101687.31;4441660;32;20111;-78
2021/01/09 07:35:57;;;;;;;23.45;9.00;;;;;;;4.42;74.43;101687.66;4429934;32;20104;-78
2021/01/09 07:38:23;;;;;;;29.10;10.40;;;;;;;4.29;74.39;101686.25;4427635;32;20060;-77
2021/01/09 07:41:00;;;;;;;22.45;9.30;;;;;;;4.13;75.01;101686.38;4431709;32;20076;-77
2021/01/09 07:49:23;;;;;;;30.15;10.68;;;;;;;4.25;75.39;101708.47;3990357;32;15023736;-77
2021/01/09 07:51:51;;;;;;;24.25;10.73;;;;;;;4.25;75.39;101708.47;4446144;32;20055;-78
2021/01/09 07:54:44;;;;;;;31.17;11.57;;;;;;;3.77;76.58;101709.19;4444297;32;20021;-77
2021/01/09 07:57:25;;;;;;;28.92;11.35;;;;;;;3.74;76.79;101707.16;4439531;32;20037;-76
2021/01/09 08:02:42;;;;;;;24.70;11.35;;;;;;;4.06;76.21;101708.56;3990983;32;15023207;-76
2021/01/09 08:07:54;;;;;;;29.87;10.98;;;;;;;3.61;77.38;101709.31;4011961;31;15024326;-77
2021/01/09 08:15:37;;;;;;;32.45;12.32;;;;;;;3.66;76.25;101720.16;3990251;32;15025258;-77
2021/01/09 08:18:06;;;;;;;26.62;10.52;;;;;;;3.47;76.60;101722.91;4439486;32;20147;-77
2021/01/09 08:20:32;;;;;;;30.60;11.55;;;;;;;3.41;76.47;101726.38;4444693;32;20072;-76
2021/01/09 08:25:38;;;;;;;29.00;11.12;;;;;;;3.75;76.10;101725.47;3987252;32;15022794;-75
2021/01/09 08:28:04;;;;;;;32.17;11.88;;;;;;;3.75;76.10;101725.47;4438885;32;20097;-77
2021/01/09 08:30:33;;;;;;;26.58;10.30;;;;;;;3.24;77.54;101724.84;4434007;32;20080;-79
2021/01/09 08:35:47;;;;;;;34.97;12.13;;;;;;;3.71;76.56;101739.31;3985367;32;15022616;-80
2021/01/09 08:38:13;;;;;;;34.10;11.48;;;;;;;3.71;76.56;101739.31;4440132;32;20075;-78
2021/01/09 08:40:42;;;;;;;32.10;13.80;;;;;;;3.26;77.50;101727.25;4447205;32;20078;-79
2021/01/09 08:43:09;;;;;;;32.40;14.10;;;;;;;3.18;77.55;101733.81;4439664;32;20025;-78
2021/01/09 08:45:55;;;;;;;38.08;14.82;;;;;;;3.20;77.87;101732.31;4436402;32;20076;-79
2021/01/09 08:56:22;;;;;;;29.08;12.13;;;;;;;3.43;77.66;101747.09;4014436;31;15015814;-76
2021/01/09 08:58:49;;;;;;;31.52;13.50;;;;;;;3.23;77.39;101739.13;4463038;32;20052;-78
2021/01/09 09:01:21;;;;;;;30.92;14.45;;;;;;;3.21;77.49;101736.69;4464187;32;20109;-78
2021/01/09 09:03:48;;;;;;;33.17;14.73;;;;;;;3.29;77.67;101744.03;4475209;32;20033;-78
2021/01/09 09:06:15;;;;;;;32.70;13.32;;;;;;;3.31;77.67;101749.19;4476591;32;20044;-78
2021/01/09 09:08:42;;;;;;;31.98;14.45;;;;;;;3.22;78.08;101737.50;4470411;32;20040;-77
2021/01/09 09:11:09;;;;;;;33.47;14.13;;;;;;;3.26;78.02;101736.41;4468451;32;20045;-76
2021/01/09 09:13:36;;;;;;;30.73;13.77;;;;;;;3.27;78.36;101739.97;4463505;32;20170;-78
2021/01/09 09:16:20;;;;;;;34.28;13.70;;;;;;;3.21;78.30;101747.00;4470992;32;20062;-76
2021/01/09 09:18:46;;;;;;;31.87;13.55;;;;;;;3.30;78.00;101742.03;4466388;32;20072;-79
2021/01/09 09:21:12;;;;;;;31.58;12.55;;;;;;;3.34;77.97;101745.69;4467356;32;20056;-78
2021/01/09 09:23:38;;;;;;;29.15;11.70;;;;;;;3.40;77.93;101753.38;4463461;32;20033;-78
2021/01/09 09:26:07;;;;;;;31.80;13.48;;;;;;;3.39;77.65;101753.75;4472257;32;20096;-76
2021/01/09 09:28:51;;;;;;;35.85;13.68;;;;;;;3.46;77.51;101740.81;4464981;32;20405;-76
2021/01/09 09:31:42;;;;;;;25.17;10.20;;;;;;;3.53;77.24;101740.16;4471695;32;20482;-79
2021/01/09 09:34:10;;;;;;;37.03;14.80;;;;;;;3.47;77.37;101745.19;4461919;32;20055;-76
2021/01/09 09:39:14;;;;;;;36.67;14.35;;;;;;;4.17;76.13;101737.38;3992461;32;15024831;-77
2021/01/09 09:44:44;;;;;;;40.20;16.37;;;;;;;4.37;76.07;101744.50;3991588;32;15029833;-76
2021/01/09 09:47:22;;;;;;;38.58;15.95;;;;;;;4.37;76.07;101744.50;4437462;32;20030;-78
2021/01/09 09:49:48;;;;;;;48.22;15.82;;;;;;;4.09;77.04;101741.22;4434294;32;20448;-77
2021/01/09 09:52:16;;;;;;;35.22;15.75;;;;;;;4.28;76.75;101738.37;4437142;32;20038;-76
2021/01/09 09:54:42;;;;;;;29.40;13.07;;;;;;;4.44;75.86;101739.06;4445139;32;20065;-77
2021/01/09 09:57:19;;;;;;;26.62;13.35;;;;;;;4.63;75.90;101750.09;4439155;32;20335;-77
2021/01/09 09:59:44;;;;;;;29.52;12.15;;;;;;;4.96;75.12;101747.44;4436892;32;20418;-77
2021/01/09 10:02:10;;;;;;;24.87;11.80;;;;;;;5.12;72.87;101748.06;4442400;32;20105;-78
2021/01/09 10:04:44;;;;;;;30.55;13.35;;;;;;;5.21;72.40;101748.59;4444470;32;20077;-78
2021/01/09 10:07:25;;;;;;;30.85;12.80;;;;;;;5.45;72.46;101750.91;4436686;32;20483;-76
2021/01/09 10:09:52;;;;;;;29.55;13.98;;;;;;;5.67;71.60;101758.38;4434842;32;20025;-76
2021/01/09 10:12:18;;;;;;;27.75;13.73;;;;;;;5.80;71.43;101750.56;4433167;32;20174;-76
2021/01/09 10:14:43;;;;;;;27.85;13.32;;;;;;;5.95;69.97;101763.50;4444996;32;20056;-77
2021/01/09 10:17:16;;;;;;;28.05;13.43;;;;;;;6.08;69.63;101759.28;4446636;32;20037;-78
2021/01/09 10:19:43;;;;;;;30.62;13.00;;;;;;;6.23;69.37;101755.44;4439063;32;20037;-78
2021/01/09 10:22:09;;;;;;;29.77;13.57;;;;;;;6.21;68.52;101755.00;4435244;32;20090;-77
2021/01/09 10:24:35;;;;;;;28.92;12.27;;;;;;;6.30;68.94;101761.09;4447342;32;20034;-77
2021/01/09 10:27:02;;;;;;;26.35;12.93;;;;;;;6.30;67.92;101751.87;4443264;32;20349;-77
2021/01/09 10:29:28;;;;;;;29.05;15.05;;;;;;;6.40;69.01;101763.16;4434283;32;20019;-78
2021/01/09 10:31:54;;;;;;;28.08;14.77;;;;;;;6.58;68.24;101763.31;4439625;32;20067;-79
2021/01/09 10:34:20;;;;;;;28.38;14.57;;;;;;;6.67;68.01;101756.22;4428104;32;20022;-77
2021/01/09 10:36:45;;;;;;;31.45;14.52;;;;;;;6.80;67.00;101753.91;4429997;32;20037;-77
2021/01/09 10:39:11;;;;;;;30.75;15.15;;;;;;;6.90;66.53;101745.59;4423826;32;20060;-77
2021/01/09 10:41:37;;;;;;;34.28;14.85;;;;;;;6.94;66.97;101748.41;4426903;32;20434;-77
2021/01/09 10:44:04;;;;;;;34.70;14.07;;;;;;;7.05;66.33;101746.47;4426863;32;20437;-78
2021/01/09 10:46:30;;;;;;;25.45;12.65;;;;;;;7.20;66.70;101734.16;4425188;32;20046;-77
2021/01/09 10:48:56;;;;;;;32.47;14.15;;;;;;;7.24;65.16;101746.22;4421141;32;20056;-78
2021/01/09 10:51:23;;;;;;;26.25;12.25;;;;;;;7.33;66.02;101735.47;4419424;32;20064;-77
2021/01/09 10:53:50;;;;;;;24.10;12.18;;;;;;;7.32;64.58;101729.06;4425086;32;20141;-77
2021/01/09 10:56:16;;;;;;;24.17;11.38;;;;;;;7.41;64.19;101734.28;4420997;32;20068;-78
2021/01/09 10:58:42;;;;;;;27.55;12.50;;;;;;;7.38;64.33;101724.69;4418904;32;20446;-77
2021/01/09 11:01:08;;;;;;;26.05;11.73;;;;;;;7.38;64.88;101721.06;4419187;32;20053;-77
2021/01/09 11:03:35;;;;;;;19.55;11.02;;;;;;;7.45;64.09;101721.91;4413666;32;20071;-78
2021/01/09 11:06:01;;;;;;;25.08;12.45;;;;;;;7.50;63.52;101720.72;4420893;32;20085;-77
2021/01/09 11:08:27;;;;;;;29.40;12.43;;;;;;;7.56;63.10;101724.75;4411163;32;20085;-77
2021/01/09 11:10:54;;;;;;;23.27;11.70;;;;;;;7.61;63.31;101722.38;4407961;32;20084;-78
2021/01/09 11:13:19;;;;;;;29.20;14.50;;;;;;;7.54;63.41;101724.34;4411329;32;20382;-77
2021/01/09 11:15:47;;;;;;;32.00;14.27;;;;;;;7.58;64.29;101711.16;4418004;32;20092;-76
2021/01/09 11:18:13;;;;;;;31.45;13.77;;;;;;;7.76;63.53;101714.78;4413860;32;20046;-77
2021/01/09 11:20:39;;;;;;;28.02;12.82;;;;;;;7.77;62.17;101699.62;4409674;32;20367;-78
2021/01/09 11:23:06;;;;;;;22.77;11.20;;;;;;;7.74;61.92;101706.00;4417632;32;20045;-77
2021/01/09 11:25:32;;;;;;;21.58;7.40;;;;;;;7.87;62.56;101716.47;4415005;32;20040;-77
2021/01/09 11:27:58;;;;;;;19.87;7.47;;;;;;;7.98;60.92;101708.06;4410239;32;20121;-77
2021/01/09 11:30:24;;;;;;;15.10;4.80;;;;;;;8.19;60.59;101708.06;4421223;32;20046;-77
2021/01/09 11:32:50;;;;;;;17.37;5.07;;;;;;;8.20;58.87;101716.09;4417995;32;20023;-79
2021/01/09 11:35:16;;;;;;;11.05;4.95;;;;;;;8.43;57.91;101704.53;4404250;32;20320;-77
2021/01/09 11:37:41;;;;;;;16.20;5.95;;;;;;;8.66;57.72;101702.13;4412208;32;20023;-77
2021/01/09 11:40:07;;;;;;;16.00;7.12;;;;;;;8.56;56.79;101696.53;4416822;32;20087;-76
2021/01/09 11:42:33;;;;;;;18.35;7.30;;;;;;;8.69;56.04;101701.31;4417274;32;20117;-76
2021/01/09 11:44:59;;;;;;;13.43;5.00;;;;;;;8.74;55.93;101703.69;4416677;32;20021;-76
2021/01/09 11:47:25;;;;;;;18.15;5.35;;;;;;;8.88;54.92;101705.69;4416575;32;20030;-78
2021/01/09 11:49:50;;;;;;;12.88;5.12;;;;;;;9.07;54.18;101699.62;4406050;32;20026;-77
2021/01/09 11:52:16;;;;;;;13.00;4.93;;;;;;;9.04;53.66;101700.44;4419473;32;20206;-77
2021/01/09 11:54:42;;;;;;;14.20;5.93;;;;;;;8.90;53.21;101703.28;4414147;32;20025;-78
2021/01/09 11:57:07;;;;;;;12.05;4.40;;;;;;;9.28;53.38;101705.19;4418627;32;20451;-76
2021/01/09 11:59:33;;;;;;;12.80;4.00;;;;;;;9.35;52.15;101713.56;4419418;32;20029;-76
2021/01/09 12:01:59;;;;;;;15.63;3.70;;;;;;;9.44;52.29;101709.13;4409301;32;20042;-76
2021/01/09 12:04:24;;;;;;;10.75;3.37;;;;;;;9.41;52.19;101720.38;4414034;32;20075;-76